Latest Weather Observations for Batchelor

IDD60901

Issued at 8:51 am CST Friday 22 June 2018 (issued every 10 minutes, with the page automatically refreshed every 10 minutes)

About weather observations | Map of Darwin area stations | Latest observations for Darwin area | Other Formats
Station Details ID: 014272 Name: BATCHELOR AIRPORT Lat: -13.05 Lon: 131.03 Height: 104.0 m
Data from the previous 72 hours. | See also: Recent months at Batchelor
Date/Time
CST
Temp
°C
App
Temp
°C
Dew
Point
°C
Rel
Hum
%
Delta-T
°C
Wind Press
QNH
hPa
Press
MSL
hPa
Rain since
9am
mm
Dir  Spd
km/h
Gust
km/h
Spd
kts
Gust
kts
22/08:30am 20.6 15.9 2.9 31 8.3 SE 17 24 9 13 1017.2 1016.7 0.0
22/08:00am 19.5 15.3 1.5 30 8.2 SE 13 19 7 10 1016.8 1016.3 0.0
22/07:30am 18.1 14.3 1.6 33 7.4 SE 11 15 6 8 1016.5 1016.0 0.0
22/07:00am 17.0 13.2 1.8 36 6.8 SE 11 17 6 9 1016.1 1015.6 0.0
22/06:30am 15.2 12.6 4.0 47 5.2 SE 7 11 4 6 1015.8 1015.3 0.0
22/06:00am 13.2 11.3 2.7 49 4.6 SE 2 2 1 1 1015.6 1015.1 0.0
22/05:30am 14.1 12.2 2.7 46 5.1 SE 2 4 1 2 1015.6 1015.1 0.0
22/05:00am 14.6 13.2 3.4 47 5.1 CALM 0 0 0 0 1015.6 1015.1 0.0
22/04:30am 16.6 14.2 1.9 37 6.6 SE 4 4 2 2 1015.6 1015.1 0.0
22/04:00am 17.8 14.9 1.3 33 7.4 SE 6 9 3 5 1015.6 1015.1 0.0
22/03:30am 17.6 14.7 1.2 33 7.3 ESE 6 7 3 4 1015.4 1014.9 0.0
22/03:00am 18.6 15.5 1.2 31 7.8 SE 7 9 4 5 1015.6 1015.1 0.0
22/02:30am 19.7 16.1 0.7 28 8.5 ESE 9 11 5 6 1015.7 1015.2 0.0
22/02:00am 21.6 17.6 0.2 24 9.7 SE 11 15 6 8 1015.8 1015.3 0.0
22/01:30am 22.4 18.5 0.9 24 9.9 SE 11 15 6 8 1015.8 1015.3 0.0
22/01:00am 22.7 19.1 0.5 23 10.2 SSE 9 17 5 9 1015.9 1015.4 0.0
22/12:30am 23.3 19.7 0.4 22 10.5 SSE 9 15 5 8 1015.9 1015.4 0.0
22/12:00am 22.9 19.4 1.3 24 10.1 SSE 9 15 5 8 1016.2 1015.7 0.0
 
Date/Time
CST
Temp
°C
App
Temp
°C
Dew
Point
°C
Rel
Hum
%
Delta-T
°C
Wind Press
QNH
hPa
Press
MSL
hPa
Rain since
9am
mm
Dir  Spd
km/h
Gust
km/h
Spd
kts
Gust
kts
21/11:30pm 22.0 19.0 2.2 27 9.3 SSE 7 9 4 5 1016.4 1015.9 0.0
21/11:00pm 18.1 15.4 2.8 36 7.1 SSE 6 7 3 4 1016.6 1016.1 0.0
21/10:30pm 17.9 15.6 2.6 36 7.0 S 4 6 2 3 1016.8 1016.3 0.0
21/10:00pm 20.8 17.9 1.6 28 8.9 SSE 6 7 3 4 1016.7 1016.2 0.0
21/09:30pm 22.0 19.0 1.1 25 9.6 SSE 6 7 3 4 1016.5 1016.0 0.0
21/09:00pm 22.0 19.1 1.6 26 9.5 SSE 6 7 3 4 1016.4 1015.9 0.0
21/08:30pm 21.2 18.5 0.4 25 9.4 S 4 6 2 3 1016.2 1015.7 0.0
21/08:00pm 23.2 20.1 0.3 22 10.5 SSE 6 7 3 4 1015.8 1015.3 0.0
21/07:30pm 24.8 21.6 -0.4 19 11.5 SSE 6 7 3 4 1015.5 1015.0 0.0
21/07:00pm 26.2 22.8 -0.8 17 12.4 SSE 7 9 4 5 1015.1 1014.6 0.0
21/06:30pm 27.7 23.9 -0.4 16 13.2 SSE 9 19 5 10 1014.6 1014.1 0.0
21/06:00pm 29.2 25.0 -1.0 14 14.1 SSE 11 17 6 9 1014.2 1013.7 0.0
21/05:30pm 30.7 25.5 -3.1 11 15.4 SE 15 20 8 11 1013.8 1013.3 0.0
21/05:00pm 31.4 26.2 -2.6 11 15.8 SE 15 24 8 13 1013.6 1013.1 0.0
21/04:30pm 31.2 27.5 -2.7 11 15.7 SSE 7 13 4 7 1013.4 1012.9 0.0
21/04:00pm 31.6 26.3 -3.7 10 16.1 SE 15 20 8 11 1013.3 1012.8 0.0
21/03:30pm 31.9 27.5 -2.2 11 16.0 SE 11 20 6 11 1013.4 1012.9 0.0
21/03:00pm 31.9 27.4 -3.5 10 16.2 E 11 19 6 10 1013.6 1013.1 0.0
21/02:30pm 31.7 26.9 -2.3 11 15.9 ESE 13 22 7 12 1013.9 1013.4 0.0
21/02:00pm 31.1 25.9 -2.8 11 15.6 ESE 15 24 8 13 1014.1 1013.6 0.0
21/01:30pm 31.2 25.8 -1.5 12 15.4 E 17 32 9 17 1014.5 1014.0 0.0
21/01:00pm 30.7 24.8 -0.8 13 15.0 ESE 20 32 11 17 1015.0 1014.5 0.0
21/12:30pm 30.2 24.4 -0.2 14 14.5 SE 20 32 11 17 1015.5 1015.0 0.0
21/12:00pm 28.9 23.2 0.6 16 13.6 SE 20 32 11 17 1015.9 1015.4 0.0
21/11:30am 28.5 22.9 1.1 17 13.2 SE 20 32 11 17 1016.4 1015.9 0.0
21/11:00am 27.1 21.2 1.5 19 12.4 ESE 22 33 12 18 1016.8 1016.3 0.0
21/10:30am 26.4 21.0 2.3 21 11.7 ESE 20 26 11 14 1017.1 1016.6 0.0
21/10:00am 25.4 20.2 2.2 22 11.2 SE 19 30 10 16 1017.3 1016.8 0.0
21/09:30am 24.4 19.2 2.5 24 10.5 SE 19 24 10 13 1017.5 1017.0 0.0
21/09:00am 23.7 19.0 3.1 26 10.0 SE 17 24 9 13 1017.5 1017.0 0.0
21/08:30am 22.5 19.0 3.6 29 9.2 SE 11 17 6 9 1017.2 1016.7 0.0
21/08:00am 20.4 18.2 5.2 37 7.5 SE 6 7 3 4 1016.9 1016.4 0.0
21/07:30am 17.1 14.6 4.8 44 5.9 SE 7 9 4 5 1016.5 1016.0 0.0
21/07:00am 16.6 14.1 4.9 46 5.6 ESE 7 7 4 4 1016.3 1015.8 0.0
21/06:30am 17.1 14.7 5.1 45 5.8 ESE 7 7 4 4 1016.0 1015.5 0.0
21/06:00am 17.5 14.7 5.1 44 6.0 E 9 11 5 6 1015.7 1015.2 0.0
21/05:30am 15.9 13.2 5.8 51 4.9 SE 9 13 5 7 1015.5 1015.0 0.0
21/05:00am 16.8 14.8 6.3 50 5.2 ESE 6 7 3 4 1015.1 1014.6 0.0
21/04:30am 16.3 13.7 6.2 51 4.9 SE 9 11 5 6 1015.1 1014.6 0.0
21/04:00am 17.1 15.3 7.2 52 5.0 E 6 7 3 4 1014.9 1014.4 0.0
21/03:30am 16.5 15.0 6.9 53 4.8 SE 4 4 2 2 1015.0 1014.5 0.0
21/03:00am 16.7 16.2 7.9 56 4.5 CALM 0 0 0 0 1015.1 1014.6 0.0
21/02:30am 17.4 15.8 6.3 48 5.5 SE 4 6 2 3 1015.3 1014.8 0.0
21/02:00am 17.5 16.2 7.8 53 4.9 SE 4 6 2 3 1015.5 1015.0 0.0
21/01:30am 18.0 17.4 7.4 50 5.4 CALM 0 0 0 0 1015.5 1015.0 0.0
21/01:00am 18.3 18.0 8.8 54 5.0 CALM 0 0 0 0 1015.6 1015.1 0.0
21/12:30am 18.0 17.6 9.6 58 4.4 SE 2 6 1 3 1015.4 1014.9 0.0
21/12:00am 18.9 18.0 9.4 54 5.0 SE 4 6 2 3 1015.6 1015.1 0.0
 
Date/Time
CST
Temp
°C
App
Temp
°C
Dew
Point
°C
Rel
Hum
%
Delta-T
°C
Wind Press
QNH
hPa
Press
MSL
hPa
Rain since
9am
mm
Dir  Spd
km/h
Gust
km/h
Spd
kts
Gust
kts
20/11:30pm 19.4 19.0 8.1 48 5.9 CALM 0 4 0 2 1015.7 1015.2 0.0
20/11:00pm 19.3 18.1 8.0 48 5.8 SE 4 6 2 3 1015.8 1015.3 0.0
20/10:30pm 20.7 19.4 7.7 43 6.7 SE 4 6 2 3 1015.6 1015.1 0.0
20/10:00pm 23.3 21.1 5.2 31 9.1 SE 6 7 3 4 1015.3 1014.8 0.0
20/09:30pm 23.9 21.9 6.2 32 9.1 SE 6 7 3 4 1015.3 1014.8 0.0
20/09:00pm 25.5 23.3 6.2 29 10.0 SSE 7 9 4 5 1015.2 1014.7 0.0
20/08:30pm 25.1 23.1 6.3 30 9.8 SSE 6 7 3 4 1014.9 1014.4 0.0
20/08:00pm 26.1 24.1 6.2 28 10.4 SSE 6 9 3 5 1014.6 1014.1 0.0
20/07:30pm 25.8 23.9 6.9 30 10.0 SSE 6 9 3 5 1014.3 1013.8 0.0
20/07:00pm 25.8 23.8 6.4 29 10.1 SSE 6 7 3 4 1014.0 1013.5 0.0
20/06:30pm 28.7 26.5 6.1 24 11.9 SSE 7 11 4 6 1013.7 1013.2 0.0
20/06:00pm 30.8 27.8 6.0 21 13.2 SE 11 15 6 8 1013.5 1013.0 0.0
20/05:30pm 32.0 28.7 6.2 20 13.9 SE 13 19 7 10 1013.2 1012.7 0.0
20/05:00pm 32.5 28.9 6.7 20 14.1 ESE 15 20 8 11 1013.0 1012.5 0.0
20/04:30pm 32.8 29.4 7.6 21 14.0 ESE 15 22 8 12 1012.9 1012.4 0.0
20/04:00pm 33.0 30.0 7.8 21 14.0 SE 13 24 7 13 1012.9 1012.4 0.0
20/03:30pm 33.3 29.8 7.3 20 14.4 SE 15 26 8 14 1013.1 1012.6 0.0
20/03:00pm 33.5 30.2 8.2 21 14.2 E 15 26 8 14 1013.4 1012.9 0.0
20/02:30pm 32.8 29.4 7.6 21 13.9 ESE 15 28 8 15 1013.8 1013.3 0.0
20/02:00pm 32.5 28.7 5.9 19 14.3 SE 15 28 8 15 1014.2 1013.7 0.0
20/01:30pm 32.4 28.6 5.8 19 14.3 ESE 15 26 8 14 1014.6 1014.1 0.0
20/01:00pm 31.8 27.7 4.6 18 14.3 ESE 15 24 8 13 1015.1 1014.6 0.0
20/12:30pm 31.1 26.9 4.0 18 14.0 ESE 15 26 8 14 1015.6 1015.1 0.0
20/12:00pm 29.7 26.0 4.4 20 13.0 SSE 13 20 7 11 1016.2 1015.7 0.0
20/11:30am 29.4 24.7 3.4 19 13.2 ESE 17 24 9 13 1016.5 1016.0 0.0
20/11:00am 29.0 23.8 2.3 18 13.2 ESE 19 30 10 16 1016.8 1016.3 0.0
20/10:30am 28.1 22.7 2.3 19 12.7 SE 20 28 11 15 1017.1 1016.6 0.0
20/10:00am 27.3 23.0 3.1 21 12.0 SE 15 22 8 12 1017.3 1016.8 0.0
20/09:30am 26.1 21.9 4.0 24 11.1 SE 15 26 8 14 1017.5 1017.0 0.0
20/09:00am 25.3 21.3 5.0 27 10.3 SE 15 22 8 12 1017.3 1016.8 0.0
20/08:30am 24.1 21.4 5.5 30 9.4 ESE 9 17 5 9 1017.1 1016.6 0.0
20/08:00am 21.6 20.9 8.5 43 6.9 ESE 2 4 1 2 1016.9 1016.4 0.0
20/07:30am 17.8 17.3 7.8 52 5.1 CALM 0 0 0 0 1016.4 1015.9 0.0
20/07:00am 17.1 15.9 8.0 55 4.6 ESE 4 4 2 2 1016.2 1015.7 0.0
20/06:30am 18.1 17.5 7.2 49 5.5 CALM 0 0 0 0 1015.9 1015.4 0.0
20/06:00am 19.2 17.4 7.0 45 6.2 ESE 6 7 3 4 1015.7 1015.2 0.0
20/05:30am 21.0 18.3 5.4 36 7.8 SE 9 11 5 6 1015.7 1015.2 0.0
20/05:00am 21.7 19.0 5.6 35 8.1 SE 9 13 5 7 1015.7 1015.2 0.0
20/04:30am 22.9 19.9 6.2 34 8.5 ESE 11 15 6 8 1015.7 1015.2 0.0
20/04:00am 21.1 19.1 7.3 41 7.1 ESE 7 11 4 6 1015.7 1015.2 0.0
20/03:30am 21.8 19.7 8.3 42 7.1 SE 9 13 5 7 1016.0 1015.5 0.0
20/03:00am 20.8 19.8 8.8 46 6.3 ESE 4 6 2 3 1016.2 1015.7 0.0
20/02:30am 21.1 19.7 8.7 45 6.6 ESE 6 7 3 4 1016.5 1016.0 0.0
20/02:00am 22.7 20.9 8.0 39 7.8 ESE 7 7 4 4 1016.6 1016.1 0.0
20/01:30am 24.4 22.2 8.0 35 8.7 E 9 13 5 7 1016.7 1016.2 0.0
20/01:00am 25.4 22.5 8.0 33 9.3 SE 13 15 7 8 1016.7 1016.2 0.0
20/12:30am 25.2 23.2 8.7 35 8.9 SE 9 13 5 7 1016.8 1016.3 0.0
20/12:00am 25.2 23.6 8.7 35 8.9 SE 7 9 4 5 1016.7 1016.2 0.0
 
Date/Time
CST
Temp
°C
App
Temp
°C
Dew
Point
°C
Rel
Hum
%
Delta-T
°C
Wind Press
QNH
hPa
Press
MSL
hPa
Rain since
9am
mm
Dir  Spd
km/h
Gust
km/h
Spd
kts
Gust
kts
19/11:30pm 25.6 24.1 9.0 35 9.1 SE 7 11 4 6 1016.9 1016.4 0.0
19/11:00pm 24.2 22.7 9.0 38 8.2 SE 7 9 4 5 1016.8 1016.3 0.0
19/10:30pm 24.8 23.2 8.7 36 8.7 SE 7 11 4 6 1016.7 1016.2 0.0
19/10:00pm 25.9 24.4 9.3 35 9.1 SE 7 13 4 7 1016.6 1016.1 0.0
19/09:30pm 25.4 24.1 9.3 36 8.8 SSE 6 9 3 5 1016.5 1016.0 0.0
19/09:00pm 25.7 24.4 9.1 35 9.1 SSE 6 9 3 5 1016.2 1015.7 0.0
19/08:30pm 26.2 24.8 9.5 35 9.2 SSE 7 9 4 5 1015.7 1015.2 0.0
19/08:00pm 26.8 25.7 10.1 35 9.3 SSE 6 9 3 5 1015.5 1015.0 0.0
19/07:30pm 27.3 26.2 10.5 35 9.5 SSE 7 11 4 6 1015.3 1014.8 0.0
19/07:00pm 27.7 26.8 11.3 36 9.4 SE 7 13 4 7 1015.0 1014.5 0.0
19/06:30pm 29.1 28.9 12.9 37 9.6 ESE 6 9 3 5 1014.4 1013.9 0.0
19/06:00pm 30.4 29.2 12.8 34 10.5 SE 11 13 6 7 1014.0 1013.5 0.0
19/05:30pm 31.3 30.0 12.6 31 11.1 SE 11 15 6 8 1013.6 1013.1 0.0
19/05:00pm 31.7 29.6 12.5 31 11.4 SE 15 22 8 12 1013.5 1013.0 0.0
19/04:30pm 31.7 30.4 12.5 31 11.4 SE 11 22 6 12 1013.4 1012.9 0.0
19/04:00pm 31.7 29.7 11.5 29 11.8 E 13 17 7 9 1013.3 1012.8 0.0
19/03:30pm 31.3 29.7 11.7 30 11.5 SE 11 24 6 13 1013.4 1012.9 0.0
19/03:00pm 31.5 30.2 11.3 29 11.8 SE 9 15 5 8 1013.5 1013.0 0.0
19/02:30pm 31.8 29.6 12.1 30 11.7 E 15 19 8 10 1013.9 1013.4 0.0
19/02:00pm 30.7 29.1 11.6 31 11.2 ESE 11 20 6 11 1014.5 1014.0 0.0
19/01:30pm 30.8 28.6 10.7 29 11.6 SE 13 20 7 11 1014.9 1014.4 0.0
19/01:00pm 29.4 26.6 8.5 27 11.5 ESE 13 20 7 11 1015.3 1014.8 0.0
19/12:30pm 28.6 25.0 8.3 28 11.1 SE 17 22 9 12 1015.7 1015.2 0.0
19/12:00pm 27.4 23.9 7.3 28 10.8 SE 15 22 8 12 1016.4 1015.9 0.0
19/11:30am 26.8 22.7 6.2 27 10.8 SE 17 26 9 14 1016.9 1016.4 0.0
19/11:00am 25.8 21.0 5.4 27 10.5 SE 20 28 11 15 1017.2 1016.7 0.0
19/10:30am 25.6 20.6 4.7 26 10.6 SE 20 28 11 15 1017.3 1016.8 0.0
19/10:00am 25.0 20.1 5.2 28 10.1 SE 20 30 11 16 1017.6 1017.1 0.0
19/09:30am 24.1 20.1 5.0 29 9.6 SE 15 24 8 13 1017.8 1017.3 0.0
19/09:00am 23.7 20.3 6.0 32 9.0 SE 13 19 7 10 1017.8 1017.3 0.0

Latest Capital City Observations: Canberra | Sydney | Melbourne | Brisbane | Adelaide | Perth | Hobart | Darwin

Other Formats:

Comma delimited format used in spreadsheet applications
http://www.bom.gov.au/fwo/IDD60901/IDD60901.94125.axf

JavaScript Object Notation format (JSON) in row-major order
http://www.bom.gov.au/fwo/IDD60901/IDD60901.94125.json